createdAt,value
2023-05-21T00:00:29.964Z,5.40
2023-05-21T00:03:19.194Z,5.22
2023-05-21T00:05:50.293Z,5.10
2023-05-21T00:08:19.425Z,6.00
2023-05-21T00:10:48.200Z,5.47
2023-05-21T00:13:17.207Z,5.20
2023-05-21T00:15:45.835Z,5.35
2023-05-21T00:18:14.910Z,5.55
2023-05-21T00:20:43.710Z,5.45
2023-05-21T00:23:18.168Z,4.70
2023-05-21T00:25:48.109Z,5.40
2023-05-21T00:28:17.328Z,5.95
2023-05-21T00:30:47.328Z,5.50
2023-05-21T00:33:16.466Z,6.35
2023-05-21T00:35:46.258Z,5.70
2023-05-21T00:38:17.832Z,5.50
2023-05-21T00:40:46.604Z,6.03
2023-05-21T00:43:15.767Z,5.70
2023-05-21T00:45:46.796Z,5.50
2023-05-21T00:48:16.264Z,6.25
2023-05-21T00:50:45.010Z,5.85
2023-05-21T00:53:18.652Z,6.18
2023-05-21T00:55:49.063Z,5.68
2023-05-21T00:58:18.878Z,5.63
2023-05-21T01:00:48.188Z,5.85
2023-05-21T01:03:17.666Z,5.82
2023-05-21T01:05:46.980Z,5.57
2023-05-21T01:08:17.858Z,5.18
2023-05-21T01:10:46.628Z,5.97
2023-05-21T01:13:17.129Z,5.80
2023-05-21T01:15:46.588Z,6.00
2023-05-21T01:18:16.255Z,6.30
2023-05-21T01:20:48.307Z,6.72
2023-05-21T01:23:20.351Z,7.65
2023-05-21T01:25:49.380Z,6.97
2023-05-21T01:28:18.390Z,7.40
2023-05-21T01:30:47.768Z,6.90
2023-05-21T01:33:25.704Z,6.55
2023-05-21T01:36:05.463Z,5.95
2023-05-21T01:38:50.048Z,5.50
2023-05-21T01:41:21.455Z,5.57
2023-05-21T01:43:51.170Z,5.40
2023-05-21T01:46:26.196Z,4.70
2023-05-21T01:48:58.025Z,5.05
2023-05-21T01:51:28.211Z,5.15
2023-05-21T01:53:58.571Z,5.90
2023-05-21T01:56:28.651Z,5.13
2023-05-21T01:58:59.658Z,5.38
2023-05-21T02:01:30.591Z,5.53
2023-05-21T02:03:59.836Z,5.22
2023-05-21T02:06:29.070Z,5.07
2023-05-21T02:08:59.729Z,5.55
2023-05-21T02:11:28.552Z,5.15
2023-05-21T02:13:58.465Z,4.68
2023-05-21T02:16:27.363Z,4.45
2023-05-21T02:18:57.499Z,4.70
2023-05-21T02:21:26.511Z,4.68
2023-05-21T02:23:55.824Z,4.80
2023-05-21T02:26:26.028Z,4.60
2023-05-21T02:28:56.307Z,4.38
2023-05-21T02:31:25.064Z,4.53
2023-05-21T02:33:54.197Z,4.38
2023-05-21T02:36:25.297Z,4.40
2023-05-21T02:38:54.754Z,4.05
2023-05-21T02:41:26.971Z,4.13
2023-05-21T02:43:56.160Z,4.72
2023-05-21T02:46:24.986Z,4.20
2023-05-21T02:48:55.324Z,4.32
2023-05-21T02:51:24.212Z,4.28
2023-05-21T02:53:53.262Z,4.57
2023-05-21T02:56:22.006Z,4.38
2023-05-21T02:58:53.065Z,4.10
2023-05-21T03:01:22.039Z,4.47
2023-05-21T03:03:51.034Z,4.07
2023-05-21T03:06:20.554Z,4.63
2023-05-21T03:08:49.709Z,4.28
2023-05-21T03:11:19.934Z,4.63
2023-05-21T03:13:49.042Z,4.60
2023-05-21T03:16:19.705Z,4.43
2023-05-21T03:18:48.684Z,4.40
2023-05-21T03:21:17.819Z,4.10
2023-05-21T03:23:46.854Z,4.63
2023-05-21T03:26:15.669Z,4.15
2023-05-21T03:28:45.155Z,4.18
2023-05-21T03:31:14.293Z,4.47
2023-05-21T03:34:03.482Z,4.28
2023-05-21T03:36:33.917Z,4.07
2023-05-21T03:39:05.288Z,4.25
2023-05-21T03:41:35.838Z,4.05
2023-05-21T03:44:10.810Z,4.35
2023-05-21T03:46:49.643Z,3.65
2023-05-21T03:49:27.048Z,3.70
2023-05-21T03:51:58.410Z,4.13
2023-05-21T03:54:28.319Z,3.90
2023-05-21T03:57:01.607Z,3.70
2023-05-21T03:59:31.255Z,4.13
2023-05-21T04:02:01.057Z,3.90
2023-05-21T04:04:31.475Z,3.80
2023-05-21T04:07:01.043Z,3.75
2023-05-21T04:09:30.212Z,3.58
2023-05-21T04:11:59.442Z,3.55
2023-05-21T04:14:28.400Z,3.75
2023-05-21T04:16:57.096Z,3.65
2023-05-21T04:19:26.217Z,3.85
2023-05-21T04:21:56.293Z,3.60
2023-05-21T04:24:25.712Z,3.80
2023-05-21T04:27:10.640Z,3.97
2023-05-21T04:29:42.875Z,3.20
2023-05-21T04:32:15.257Z,3.50
2023-05-21T04:34:44.376Z,3.50
2023-05-21T04:37:17.866Z,3.38
2023-05-21T04:39:48.134Z,3.15
2023-05-21T04:42:16.989Z,2.90
2023-05-21T04:44:46.051Z,2.80
2023-05-21T04:47:15.078Z,2.83
2023-05-21T04:49:45.041Z,3.03
2023-05-21T04:52:15.258Z,3.08
2023-05-21T04:54:45.905Z,2.78
2023-05-21T04:57:14.861Z,2.95
2023-05-21T04:59:44.014Z,3.67
2023-05-21T05:02:12.934Z,3.10
2023-05-21T05:04:44.052Z,3.17
2023-05-21T05:07:15.108Z,3.42
2023-05-21T05:09:44.658Z,2.95
2023-05-21T05:12:13.436Z,3.10
2023-05-21T05:14:42.470Z,3.03
2023-05-21T05:17:11.449Z,3.15
2023-05-21T05:19:40.918Z,3.70
2023-05-21T05:22:11.215Z,3.35
2023-05-21T05:24:42.795Z,3.13
2023-05-21T05:27:11.500Z,3.05
2023-05-21T05:29:40.577Z,2.80
2023-05-21T05:32:10.341Z,3.13
2023-05-21T05:34:39.544Z,3.70
2023-05-21T05:37:08.255Z,2.83
2023-05-21T05:39:37.351Z,2.65
2023-05-21T05:42:08.361Z,3.03
2023-05-21T05:44:37.520Z,2.90
2023-05-21T05:47:10.779Z,2.88
2023-05-21T05:49:41.295Z,3.10
2023-05-21T05:52:10.047Z,2.90
2023-05-21T05:54:39.125Z,2.83
2023-05-21T05:57:09.421Z,2.60
2023-05-21T05:59:39.174Z,2.65
2023-05-21T06:02:08.356Z,2.97
2023-05-21T06:04:37.601Z,2.28
2023-05-21T06:07:06.725Z,2.90
2023-05-21T06:09:38.898Z,2.42
2023-05-21T06:12:12.324Z,2.83
2023-05-21T06:14:45.937Z,2.80
2023-05-21T06:17:14.883Z,2.60
2023-05-21T06:19:45.272Z,2.50
2023-05-21T06:22:14.204Z,2.13
2023-05-21T06:24:43.469Z,2.25
2023-05-21T06:27:13.752Z,2.50
2023-05-21T06:29:43.611Z,2.58
2023-05-21T06:32:12.303Z,2.25
2023-05-21T06:34:42.162Z,2.70
2023-05-21T06:37:10.963Z,2.30
2023-05-21T06:39:40.388Z,2.40
2023-05-21T06:42:09.339Z,2.83
2023-05-21T06:45:15.223Z,2.70
2023-05-21T06:47:46.342Z,2.33
2023-05-21T06:50:15.571Z,2.35
2023-05-21T06:52:44.338Z,2.92
2023-05-21T06:55:13.388Z,2.63
2023-05-21T06:58:00.709Z,2.50
2023-05-21T07:00:31.278Z,2.30
2023-05-21T07:03:00.443Z,2.05
2023-05-21T07:05:29.738Z,2.40
2023-05-21T07:07:58.527Z,2.75
2023-05-21T07:10:27.507Z,2.17
2023-05-21T07:12:56.238Z,2.53
2023-05-21T07:15:25.271Z,2.40
2023-05-21T07:17:55.651Z,2.13
2023-05-21T07:20:24.752Z,2.20
2023-05-21T07:22:56.827Z,2.90
2023-05-21T07:25:26.200Z,2.33
2023-05-21T07:27:55.120Z,2.30
2023-05-21T07:30:24.219Z,2.55
2023-05-21T07:32:53.049Z,2.10
2023-05-21T07:35:23.875Z,2.15
2023-05-21T07:37:52.850Z,2.38
2023-05-21T07:40:21.949Z,2.55
2023-05-21T07:42:52.240Z,2.33
2023-05-21T07:45:24.233Z,2.00
2023-05-21T07:47:53.142Z,1.98
2023-05-21T07:50:23.759Z,2.20
2023-05-21T07:52:52.657Z,2.15
2023-05-21T07:55:22.840Z,2.00
2023-05-21T07:57:52.552Z,2.17
2023-05-21T08:00:27.548Z,1.98
2023-05-21T08:02:59.069Z,2.17
2023-05-21T08:05:30.132Z,2.28
2023-05-21T08:07:59.049Z,1.73
2023-05-21T08:10:31.829Z,2.03
2023-05-21T08:13:00.961Z,2.30
2023-05-21T08:15:30.164Z,1.90
2023-05-21T08:17:59.319Z,1.88
2023-05-21T08:20:31.052Z,1.92
2023-05-21T08:23:00.922Z,1.92
2023-05-21T08:25:33.319Z,2.00
2023-05-21T08:28:04.362Z,2.10
2023-05-21T08:30:33.404Z,1.92
2023-05-21T08:33:02.383Z,2.10
2023-05-21T08:35:35.623Z,2.88
2023-05-21T08:38:13.071Z,2.30
2023-05-21T08:40:50.043Z,2.10
2023-05-21T08:43:20.763Z,2.22
2023-05-21T08:45:56.607Z,2.20
2023-05-21T08:48:29.513Z,1.90
2023-05-21T08:51:01.328Z,2.10
2023-05-21T08:53:35.272Z,2.08
2023-05-21T08:56:08.631Z,2.00
2023-05-21T08:58:48.182Z,2.38
2023-05-21T09:01:22.922Z,2.10
2023-05-21T09:04:12.245Z,2.30
2023-05-21T09:06:52.614Z,1.90
2023-05-21T09:09:39.693Z,1.70
2023-05-21T09:12:09.866Z,1.75
2023-05-21T09:14:40.239Z,1.90
2023-05-21T09:17:15.955Z,2.25
2023-05-21T09:20:13.608Z,2.20
2023-05-21T09:22:51.521Z,2.08
2023-05-21T09:25:24.971Z,2.10
2023-05-21T09:27:54.203Z,1.88
2023-05-21T09:30:26.135Z,1.92
2023-05-21T09:33:00.616Z,1.83
2023-05-21T09:35:29.761Z,1.70
2023-05-21T09:38:00.349Z,2.17
2023-05-21T09:40:29.155Z,1.80
2023-05-21T09:42:58.342Z,1.90
2023-05-21T09:45:30.331Z,1.80
2023-05-21T09:48:05.651Z,1.85
2023-05-21T09:50:38.011Z,1.73
2023-05-21T09:53:14.184Z,2.08
2023-05-21T09:55:43.362Z,1.90
2023-05-21T09:58:12.454Z,2.05
2023-05-21T10:00:41.445Z,2.00
2023-05-21T10:03:14.758Z,1.83
2023-05-21T10:05:44.949Z,2.35
2023-05-21T10:08:19.331Z,2.28
2023-05-21T10:10:50.798Z,2.30
2023-05-21T10:13:24.548Z,2.38
2023-05-21T10:16:02.976Z,1.90
2023-05-21T10:18:34.560Z,1.80
2023-05-21T10:21:04.520Z,1.88
2023-05-21T10:23:37.392Z,1.90
2023-05-21T10:26:08.191Z,2.30
2023-05-21T10:28:38.802Z,2.30
2023-05-21T10:31:08.909Z,2.20
2023-05-21T10:33:39.796Z,2.10
2023-05-21T10:36:10.158Z,1.90
2023-05-21T10:38:41.859Z,1.70
2023-05-21T10:41:13.395Z,2.05
2023-05-21T10:44:06.644Z,2.13
2023-05-21T10:47:14.977Z,1.90
2023-05-21T10:50:09.655Z,2.10
2023-05-21T10:53:03.095Z,2.50
2023-05-21T10:55:50.542Z,1.63
2023-05-21T10:59:21.837Z,2.13
2023-05-21T11:01:53.665Z,1.85
2023-05-21T11:04:28.560Z,1.98
2023-05-21T11:06:59.834Z,1.63
2023-05-21T11:09:28.862Z,2.20
2023-05-21T11:12:01.390Z,1.85
2023-05-21T11:14:39.641Z,2.08
2023-05-21T11:17:14.640Z,2.10
2023-05-21T11:19:47.280Z,2.05
2023-05-21T11:22:25.562Z,1.80
2023-05-21T11:24:56.328Z,2.20
2023-05-21T11:27:38.320Z,2.20
2023-05-21T11:30:09.443Z,2.00
2023-05-21T11:32:40.161Z,2.00
2023-05-21T11:35:09.935Z,2.00
2023-05-21T11:37:41.929Z,2.15
2023-05-21T11:40:30.230Z,2.42
2023-05-21T11:43:00.766Z,2.20
2023-05-21T11:45:34.263Z,2.55
2023-05-21T11:48:04.525Z,1.98
2023-05-21T11:50:34.127Z,2.70
2023-05-21T11:53:04.059Z,2.00
2023-05-21T11:55:33.235Z,2.33
2023-05-21T11:58:04.370Z,2.00
2023-05-21T12:00:39.450Z,2.00
2023-05-21T12:03:13.009Z,2.53
2023-05-21T12:05:46.681Z,2.30
2023-05-21T12:08:25.340Z,3.13
2023-05-21T12:10:59.553Z,2.38
2023-05-21T12:13:30.222Z,2.28
2023-05-21T12:15:59.176Z,2.30
2023-05-21T12:18:28.345Z,2.38
2023-05-21T12:20:57.509Z,2.47
2023-05-21T12:23:26.918Z,2.30
2023-05-21T12:25:56.367Z,2.22
2023-05-21T12:28:25.983Z,2.40
2023-05-21T12:30:56.204Z,2.10
2023-05-21T12:33:26.068Z,2.28
2023-05-21T12:35:55.022Z,2.15
2023-05-21T12:38:24.170Z,2.13
2023-05-21T12:40:53.052Z,2.00
2023-05-21T12:43:22.089Z,1.95
2023-05-21T12:45:50.951Z,2.10
2023-05-21T12:48:20.993Z,1.98
2023-05-21T12:50:50.019Z,2.30
2023-05-21T12:53:18.719Z,2.20
2023-05-21T12:55:47.898Z,2.25
2023-05-21T12:58:17.248Z,2.40
2023-05-21T13:00:46.414Z,2.10
2023-05-21T13:03:15.260Z,2.20
2023-05-21T13:05:46.825Z,2.40
2023-05-21T13:08:17.009Z,2.20
2023-05-21T13:10:46.321Z,2.08
2023-05-21T13:13:15.046Z,2.25
2023-05-21T13:15:44.098Z,2.30
2023-05-21T13:18:13.364Z,2.30
2023-05-21T13:20:42.363Z,2.25
2023-05-21T13:23:13.186Z,2.35
2023-05-21T13:25:42.271Z,2.63
2023-05-21T13:28:15.112Z,2.47
2023-05-21T13:30:44.262Z,2.50
2023-05-21T13:33:13.318Z,2.65
2023-05-21T13:35:42.432Z,2.75
2023-05-21T13:38:12.458Z,2.30
2023-05-21T13:40:41.620Z,2.08
2023-05-21T13:43:10.478Z,1.98
2023-05-21T13:45:39.462Z,2.58
2023-05-21T13:48:08.386Z,2.20
2023-05-21T13:50:37.568Z,1.98
2023-05-21T13:53:06.491Z,2.00
2023-05-21T13:55:36.924Z,1.75
2023-05-21T13:58:05.744Z,1.77
2023-05-21T14:00:34.917Z,1.65
2023-05-21T14:03:06.535Z,1.98
2023-05-21T14:05:35.728Z,2.00
2023-05-21T14:08:04.892Z,2.50
2023-05-21T14:10:34.041Z,2.20
2023-05-21T14:13:18.486Z,1.75
2023-05-21T14:15:48.884Z,1.90
2023-05-21T14:18:17.806Z,1.90
2023-05-21T14:20:46.795Z,2.30
2023-05-21T14:23:16.442Z,2.10
2023-05-21T14:25:45.491Z,1.75
2023-05-21T14:28:15.670Z,2.00
2023-05-21T14:30:44.693Z,2.22
2023-05-21T14:33:13.594Z,2.40
2023-05-21T14:35:44.114Z,2.70
2023-05-21T14:38:13.094Z,2.30
2023-05-21T14:40:42.136Z,1.70
2023-05-21T14:43:10.841Z,2.00
2023-05-21T14:45:41.307Z,1.98
2023-05-21T14:48:10.122Z,1.92
2023-05-21T14:50:39.586Z,1.80
2023-05-21T14:53:09.945Z,1.75
2023-05-21T14:55:40.053Z,2.00
2023-05-21T14:58:09.476Z,1.73
2023-05-21T15:00:40.434Z,2.10
2023-05-21T15:03:09.280Z,1.70
2023-05-21T15:05:38.542Z,2.00
2023-05-21T15:08:09.646Z,1.83
2023-05-21T15:10:38.680Z,2.40
2023-05-21T15:13:07.462Z,1.90
2023-05-21T15:15:37.014Z,1.63
2023-05-21T15:18:07.460Z,2.22
2023-05-21T15:20:36.585Z,1.90
2023-05-21T15:23:16.275Z,2.10
2023-05-21T15:25:46.122Z,1.80
2023-05-21T15:28:14.887Z,1.90
2023-05-21T15:30:44.228Z,1.75
2023-05-21T15:33:14.219Z,1.80
2023-05-21T15:35:43.690Z,1.80
2023-05-21T15:38:12.850Z,1.98
2023-05-21T15:40:42.511Z,2.10
2023-05-21T15:43:11.382Z,1.80
2023-05-21T15:45:40.419Z,2.15
2023-05-21T15:48:09.310Z,1.95
2023-05-21T15:50:40.163Z,2.40
2023-05-21T15:53:08.877Z,2.03
2023-05-21T15:55:38.244Z,2.00
2023-05-21T15:58:07.253Z,1.90
2023-05-21T16:00:36.300Z,2.00
2023-05-21T16:03:05.730Z,1.90
2023-05-21T16:05:34.908Z,1.70
2023-05-21T16:08:05.563Z,2.42
2023-05-21T16:10:34.552Z,2.20
2023-05-21T16:13:03.927Z,2.10
2023-05-21T16:15:33.077Z,2.08
2023-05-21T16:18:02.145Z,2.00
2023-05-21T16:20:31.376Z,2.00
2023-05-21T16:23:00.292Z,1.80
2023-05-21T16:25:30.844Z,1.83
2023-05-21T16:27:59.571Z,2.17
2023-05-21T16:30:28.647Z,2.20
2023-05-21T16:32:57.508Z,2.25
2023-05-21T16:35:26.626Z,2.10
2023-05-21T16:37:55.461Z,2.40
2023-05-21T16:40:24.460Z,2.00
2023-05-21T16:42:54.911Z,2.00
2023-05-21T16:45:24.099Z,2.20
2023-05-21T16:47:53.335Z,2.25
2023-05-21T16:50:22.421Z,2.10
2023-05-21T16:52:51.496Z,2.00
2023-05-21T16:55:20.805Z,2.40
2023-05-21T16:57:49.764Z,2.05
2023-05-21T17:00:20.737Z,2.20
2023-05-21T17:02:49.725Z,1.85
2023-05-21T17:05:19.120Z,2.28
2023-05-21T17:07:49.203Z,2.08
2023-05-21T17:10:18.569Z,2.25
2023-05-21T17:12:47.541Z,1.67
2023-05-21T17:15:16.744Z,2.10
2023-05-21T17:17:46.921Z,2.10
2023-05-21T17:20:16.147Z,2.10
2023-05-21T17:22:45.083Z,1.88
2023-05-21T17:25:14.164Z,2.20
2023-05-21T17:27:42.938Z,1.90
2023-05-21T17:30:13.286Z,2.50
2023-05-21T17:32:42.115Z,2.70
2023-05-21T17:35:12.719Z,2.65
2023-05-21T17:37:41.499Z,2.63
2023-05-21T17:40:11.920Z,2.60
2023-05-21T17:42:41.017Z,2.45
2023-05-21T17:45:11.313Z,2.15
2023-05-21T17:47:40.139Z,2.05
2023-05-21T17:50:12.152Z,2.45
2023-05-21T17:52:40.969Z,2.40
2023-05-21T17:55:10.807Z,2.20
2023-05-21T17:57:39.501Z,2.65
2023-05-21T18:00:10.285Z,2.33
2023-05-21T18:02:42.127Z,2.60
2023-05-21T18:05:12.695Z,2.78
2023-05-21T18:07:41.439Z,2.70
2023-05-21T18:10:11.279Z,2.55
2023-05-21T18:12:41.057Z,2.70
2023-05-21T18:15:11.535Z,2.47
2023-05-21T18:17:40.568Z,2.63
2023-05-21T18:20:14.165Z,2.72
2023-05-21T18:22:43.056Z,2.65
2023-05-21T18:25:12.516Z,2.70
2023-05-21T18:27:41.335Z,2.70
2023-05-21T18:30:11.665Z,2.50
2023-05-21T18:32:40.576Z,2.60
2023-05-21T18:35:13.009Z,2.53
2023-05-21T18:37:46.535Z,2.60
2023-05-21T18:40:17.515Z,2.42
2023-05-21T18:42:46.259Z,2.70
2023-05-21T18:45:16.459Z,2.50
2023-05-21T18:47:45.717Z,2.72
2023-05-21T18:50:15.486Z,2.92
2023-05-21T18:52:46.541Z,2.97
2023-05-21T18:55:15.935Z,3.50
2023-05-21T18:57:46.180Z,4.07
2023-05-21T19:00:15.956Z,3.53
2023-05-21T19:02:46.755Z,3.17
2023-05-21T19:05:16.338Z,3.13
2023-05-21T19:07:46.610Z,3.08
2023-05-21T19:10:15.768Z,2.90
2023-05-21T19:12:44.893Z,2.53
2023-05-21T19:15:14.282Z,3.03
2023-05-21T19:17:43.122Z,2.97
2023-05-21T19:20:22.828Z,2.90
2023-05-21T19:22:53.112Z,2.88
2023-05-21T19:25:22.205Z,3.20
2023-05-21T19:27:52.833Z,3.40
2023-05-21T19:30:21.980Z,3.20
2023-05-21T19:32:50.957Z,3.30
2023-05-21T19:35:20.086Z,2.90
2023-05-21T19:37:48.838Z,3.22
2023-05-21T19:40:22.576Z,3.70
2023-05-21T19:42:51.489Z,3.05
2023-05-21T19:45:21.572Z,3.10
2023-05-21T19:47:51.253Z,3.03
2023-05-21T19:50:20.489Z,3.10
2023-05-21T19:52:49.383Z,3.20
2023-05-21T19:55:20.496Z,3.30
2023-05-21T19:57:49.922Z,3.55
2023-05-21T20:00:19.535Z,3.60
2023-05-21T20:02:48.456Z,3.22
2023-05-21T20:05:18.654Z,3.60
2023-05-21T20:07:47.686Z,3.30
2023-05-21T20:10:16.909Z,3.53
2023-05-21T20:12:47.376Z,3.35
2023-05-21T20:15:18.293Z,4.05
2023-05-21T20:17:50.352Z,3.78
2023-05-21T20:20:22.950Z,3.72
2023-05-21T20:22:51.874Z,3.67
2023-05-21T20:25:21.231Z,4.80
2023-05-21T20:27:51.466Z,4.15
2023-05-21T20:30:20.917Z,4.07
2023-05-21T20:32:49.876Z,4.63
2023-05-21T20:35:18.889Z,4.85
2023-05-21T20:37:48.221Z,4.75
2023-05-21T20:40:19.004Z,4.35
2023-05-21T20:42:52.007Z,4.15
2023-05-21T20:45:22.007Z,4.68
2023-05-21T20:47:50.919Z,4.50
2023-05-21T20:50:25.867Z,4.75
2023-05-21T20:52:54.662Z,4.75
2023-05-21T20:55:23.716Z,4.90
2023-05-21T20:57:54.005Z,5.07
2023-05-21T21:00:23.227Z,4.55
2023-05-21T21:02:52.110Z,5.15
2023-05-21T21:05:21.403Z,4.93
2023-05-21T21:07:50.189Z,4.75
2023-05-21T21:10:19.582Z,5.18
2023-05-21T21:12:48.830Z,4.60
2023-05-21T21:15:19.437Z,4.38
2023-05-21T21:17:48.334Z,4.50
2023-05-21T21:20:18.749Z,4.20
2023-05-21T21:22:47.846Z,4.45
2023-05-21T21:25:16.970Z,4.07
2023-05-21T21:27:45.769Z,4.10
2023-05-21T21:30:15.195Z,4.07
2023-05-21T21:32:45.365Z,4.22
2023-05-21T21:35:14.482Z,4.50
2023-05-21T21:37:43.186Z,4.03
2023-05-21T21:40:13.691Z,4.28
2023-05-21T21:42:43.927Z,4.15
2023-05-21T21:45:13.289Z,4.00
2023-05-21T21:47:42.241Z,4.20
2023-05-21T21:50:13.085Z,3.67
2023-05-21T21:52:41.893Z,4.05
2023-05-21T21:55:12.623Z,4.38
2023-05-21T21:57:41.339Z,4.28
2023-05-21T22:00:15.907Z,4.10
2023-05-21T22:02:46.576Z,4.30
2023-05-21T22:05:17.202Z,4.18
2023-05-21T22:07:47.050Z,4.13
2023-05-21T22:10:17.197Z,4.03
2023-05-21T22:12:47.071Z,4.18
2023-05-21T22:15:23.005Z,5.13
2023-05-21T22:17:52.533Z,4.13
2023-05-21T22:20:23.152Z,4.03
2023-05-21T22:22:53.624Z,4.00
2023-05-21T22:25:24.584Z,4.05
2023-05-21T22:27:53.673Z,4.15
2023-05-21T22:30:41.727Z,4.60
2023-05-21T22:33:11.454Z,3.72
2023-05-21T22:35:41.856Z,4.70
2023-05-21T22:38:10.659Z,4.18
2023-05-21T22:40:39.943Z,4.35
2023-05-21T22:43:08.985Z,4.22
2023-05-21T22:45:38.429Z,4.10
2023-05-21T22:48:08.526Z,4.65
2023-05-21T22:50:38.392Z,4.43
2023-05-21T22:53:08.926Z,4.15
2023-05-21T22:55:37.906Z,4.00
2023-05-21T22:58:06.638Z,4.32
2023-05-21T23:00:35.662Z,4.28
2023-05-21T23:03:05.141Z,4.63
2023-05-21T23:05:34.270Z,4.53
2023-05-21T23:08:03.040Z,4.50
2023-05-21T23:10:33.392Z,4.47
2023-05-21T23:13:02.099Z,4.40
2023-05-21T23:15:31.064Z,4.10
2023-05-21T23:18:00.498Z,4.57
2023-05-21T23:20:29.620Z,4.13
2023-05-21T23:22:58.376Z,4.78
2023-05-21T23:25:27.364Z,4.18
2023-05-21T23:27:57.433Z,4.30
2023-05-21T23:30:26.397Z,4.05
2023-05-21T23:32:55.092Z,4.43
2023-05-21T23:35:24.185Z,4.07
2023-05-21T23:37:52.888Z,4.63
2023-05-21T23:40:21.974Z,4.70
2023-05-21T23:42:50.662Z,4.50
2023-05-21T23:45:21.035Z,4.25
2023-05-21T23:47:49.848Z,4.68
2023-05-21T23:50:18.857Z,4.55
2023-05-21T23:52:47.768Z,4.40
2023-05-21T23:55:17.470Z,4.53
2023-05-21T23:57:46.237Z,4.30
